Time,TemperatureF,DewpointF,PressureIn,WindDirection,WindDirectionDegrees,WindSpeedMPH,WindSpeedGustMPH,Humidity,HourlyPrecipIn,Conditions,Clouds,dailyrainin,SoftwareType,DateUTC
2013-08-07 00:01:00,80.2,77.9,30.00,NE,43,0.0,0.0,93,0.00,,,0.00,WUHU216PEETBRO,2013-08-07 04:01:00,
2013-08-07 00:06:00,80.2,77.9,30.00,NE,43,0.0,0.0,93,0.00,,,0.00,WUHU216PEETBRO,2013-08-07 04:06:00,
2013-08-07 00:11:00,80.1,77.9,30.00,NE,43,0.0,0.0,93,0.00,,,0.00,WUHU216PEETBRO,2013-08-07 04:11:00,
2013-08-07 00:16:00,80.1,77.9,30.00,NE,43,0.0,0.0,93,0.00,,,0.00,WUHU216PEETBRO,2013-08-07 04:16:00,
2013-08-07 00:21:00,80.0,77.9,29.99,NE,43,0.0,0.0,93,0.00,,,0.00,WUHU216PEETBRO,2013-08-07 04:21:00,
2013-08-07 00:26:00,80.0,77.9,30.00,NE,43,0.0,0.0,94,0.00,,,0.00,WUHU216PEETBRO,2013-08-07 04:26:00,
2013-08-07 00:31:00,79.9,77.8,30.00,NE,43,0.0,0.0,94,0.00,,,0.00,WUHU216PEETBRO,2013-08-07 04:31:00,
2013-08-07 00:36:00,79.9,77.9,30.00,NE,43,0.0,0.0,94,0.00,,,0.00,WUHU216PEETBRO,2013-08-07 04:36:00,
2013-08-07 00:41:00,79.9,78.0,30.00,NE,43,0.0,0.0,94,0.00,,,0.00,WUHU216PEETBRO,2013-08-07 04:41:00,
2013-08-07 00:46:00,79.8,77.9,30.00,NE,43,0.0,0.0,94,0.00,,,0.00,WUHU216PEETBRO,2013-08-07 04:46:00,
2013-08-07 00:51:00,79.7,77.8,30.00,NE,43,0.0,0.0,94,0.00,,,0.00,WUHU216PEETBRO,2013-08-07 04:51:00,
2013-08-07 00:56:00,79.7,77.8,30.00,NE,43,0.0,0.0,94,0.00,,,0.00,WUHU216PEETBRO,2013-08-07 04:56:00,
2013-08-07 01:01:00,79.7,77.9,30.00,NE,43,0.0,0.0,94,0.00,,,0.00,WUHU216PEETBRO,2013-08-07 05:01:00,
2013-08-07 01:06:00,79.7,77.9,30.00,NE,43,0.0,0.0,94,0.00,,,0.00,WUHU216PEETBRO,2013-08-07 05:06:00,
2013-08-07 01:11:00,79.7,78.0,30.00,NE,43,0.0,0.0,95,0.00,,,0.00,WUHU216PEETBRO,2013-08-07 05:11:00,
2013-08-07 01:16:00,79.7,78.0,29.99,NE,43,0.0,0.0,95,0.00,,,0.00,WUHU216PEETBRO,2013-08-07 05:16:00,
2013-08-07 01:21:00,79.7,78.0,29.99,NE,43,0.0,0.0,95,0.00,,,0.00,WUHU216PEETBRO,2013-08-07 05:21:00,
2013-08-07 01:26:00,79.4,77.7,30.00,NE,43,0.0,0.0,95,0.00,,,0.00,WUHU216PEETBRO,2013-08-07 05:26:00,
2013-08-07 01:31:00,79.4,77.7,29.99,NE,43,0.0,0.0,95,0.00,,,0.00,WUHU216PEETBRO,2013-08-07 05:31:00,
2013-08-07 01:36:00,79.3,77.7,29.99,NE,43,0.0,0.0,95,0.00,,,0.00,WUHU216PEETBRO,2013-08-07 05:36:00,
2013-08-07 01:41:00,79.3,77.7,29.99,NE,43,0.0,0.0,95,0.00,,,0.00,WUHU216PEETBRO,2013-08-07 05:41:00,
2013-08-07 01:46:00,79.3,77.7,29.99,NE,43,0.0,0.0,95,0.00,,,0.00,WUHU216PEETBRO,2013-08-07 05:46:00,
2013-08-07 01:51:00,79.3,77.7,29.99,NE,43,0.0,0.0,95,0.00,,,0.00,WUHU216PEETBRO,2013-08-07 05:51:00,
2013-08-07 01:56:00,79.3,77.8,29.99,NE,43,0.0,0.0,95,0.00,,,0.00,WUHU216PEETBRO,2013-08-07 05:56:00,
2013-08-07 02:01:00,79.2,77.7,29.98,NE,43,0.0,0.0,95,0.00,,,0.00,WUHU216PEETBRO,2013-08-07 06:01:00,
2013-08-07 02:06:00,79.1,77.6,29.98,NE,43,0.0,0.0,95,0.00,,,0.00,WUHU216PEETBRO,2013-08-07 06:06:00,
2013-08-07 02:11:00,79.1,77.6,29.98,NE,43,0.0,0.0,95,0.00,,,0.00,WUHU216PEETBRO,2013-08-07 06:11:00,
2013-08-07 02:16:00,78.9,77.4,29.98,NE,43,0.0,0.0,95,0.00,,,0.00,WUHU216PEETBRO,2013-08-07 06:16:00,
2013-08-07 02:21:00,78.9,77.4,29.98,NE,43,0.0,0.0,95,0.00,,,0.00,WUHU216PEETBRO,2013-08-07 06:21:00,
2013-08-07 02:26:00,79.0,77.6,29.97,ENE,59,0.0,0.0,96,0.00,,,0.00,WUHU216PEETBRO,2013-08-07 06:26:00,
2013-08-07 02:31:00,79.1,77.7,29.97,ENE,59,0.0,0.0,96,0.00,,,0.00,WUHU216PEETBRO,2013-08-07 06:31:00,
2013-08-07 02:36:00,79.2,77.8,29.97,ENE,59,0.0,0.0,96,0.00,,,0.00,WUHU216PEETBRO,2013-08-07 06:36:00,
2013-08-07 02:41:00,79.2,77.8,29.97,NE,53,0.0,5.3,96,0.00,,,0.00,WUHU216PEETBRO,2013-08-07 06:41:00,
2013-08-07 02:46:00,79.2,77.8,29.97,NE,53,0.0,5.3,96,0.00,,,0.00,WUHU216PEETBRO,2013-08-07 06:46:00,
2013-08-07 02:51:00,79.1,77.7,29.97,NE,53,0.0,3.3,96,0.00,,,0.00,WUHU216PEETBRO,2013-08-07 06:51:00,
2013-08-07 02:56:00,79.1,77.7,29.97,NE,53,0.0,0.0,96,0.00,,,0.00,WUHU216PEETBRO,2013-08-07 06:56:00,
2013-08-07 03:01:00,79.1,77.7,29.97,NE,53,0.0,0.0,96,0.00,,,0.00,WUHU216PEETBRO,2013-08-07 07:01:00,
2013-08-07 03:06:00,79.1,77.8,29.97,NE,53,0.0,0.0,96,0.00,,,0.00,WUHU216PEETBRO,2013-08-07 07:06:00,
2013-08-07 03:11:00,79.1,77.7,29.97,NE,53,0.0,0.0,96,0.00,,,0.00,WUHU216PEETBRO,2013-08-07 07:11:00,
2013-08-07 03:16:00,79.0,77.6,29.97,NE,53,0.0,0.0,96,0.00,,,0.00,WUHU216PEETBRO,2013-08-07 07:16:00,
2013-08-07 03:21:00,78.9,77.6,29.97,NE,53,0.0,0.0,96,0.00,,,0.00,WUHU216PEETBRO,2013-08-07 07:21:00,
2013-08-07 03:26:00,78.8,77.4,29.97,NE,53,0.0,0.0,96,0.00,,,0.00,WUHU216PEETBRO,2013-08-07 07:26:00,
2013-08-07 03:31:00,78.8,77.4,29.97,NE,53,0.0,0.0,96,0.00,,,0.00,WUHU216PEETBRO,2013-08-07 07:31:00,
2013-08-07 03:36:00,78.8,77.5,29.97,NE,53,0.0,0.0,96,0.00,,,0.00,WUHU216PEETBRO,2013-08-07 07:36:00,
2013-08-07 03:41:00,78.8,77.5,29.97,NE,53,0.0,0.0,96,0.00,,,0.00,WUHU216PEETBRO,2013-08-07 07:41:00,
2013-08-07 03:46:00,78.8,77.5,29.96,NE,53,0.0,0.0,96,0.00,,,0.00,WUHU216PEETBRO,2013-08-07 07:46:00,
2013-08-07 03:51:00,78.5,77.2,29.96,NE,53,0.0,0.0,96,0.00,,,0.00,WUHU216PEETBRO,2013-08-07 07:51:00,
2013-08-07 03:56:00,78.4,77.1,29.96,NE,53,0.0,0.0,96,0.00,,,0.00,WUHU216PEETBRO,2013-08-07 07:56:00,
2013-08-07 04:01:00,78.2,76.9,29.96,NE,53,0.0,0.0,96,0.00,,,0.00,WUHU216PEETBRO,2013-08-07 08:01:00,
2013-08-07 04:06:00,78.2,76.9,29.96,NE,53,0.0,0.0,96,0.00,,,0.00,WUHU216PEETBRO,2013-08-07 08:06:00,
2013-08-07 04:11:00,78.1,76.8,29.96,NE,53,0.0,0.0,96,0.00,,,0.00,WUHU216PEETBRO,2013-08-07 08:11:00,
2013-08-07 04:16:00,78.1,76.9,29.96,NE,53,0.0,0.0,96,0.00,,,0.00,WUHU216PEETBRO,2013-08-07 08:16:00,
2013-08-07 04:21:00,78.1,76.9,29.96,NE,53,0.0,0.0,96,0.00,,,0.00,WUHU216PEETBRO,2013-08-07 08:21:00,
2013-08-07 04:26:00,78.2,77.0,29.96,NE,53,0.0,0.0,96,0.00,,,0.00,WUHU216PEETBRO,2013-08-07 08:26:00,
2013-08-07 04:31:00,78.1,76.9,29.96,NE,53,0.0,0.0,96,0.00,,,0.00,WUHU216PEETBRO,2013-08-07 08:31:00,
2013-08-07 04:36:00,78.0,76.8,29.96,NE,53,0.0,0.0,96,0.00,,,0.00,WUHU216PEETBRO,2013-08-07 08:36:00,
2013-08-07 04:41:00,77.7,76.5,29.96,NE,53,0.0,0.0,96,0.00,,,0.00,WUHU216PEETBRO,2013-08-07 08:41:00,
2013-08-07 04:46:00,77.9,76.7,29.96,NE,53,0.0,0.0,96,0.00,,,0.00,WUHU216PEETBRO,2013-08-07 08:46:00,
2013-08-07 04:51:00,77.9,76.8,29.96,NE,53,0.0,0.0,96,0.00,,,0.00,WUHU216PEETBRO,2013-08-07 08:51:00,
2013-08-07 04:56:00,77.9,76.7,29.96,NE,53,0.0,0.0,96,0.00,,,0.00,WUHU216PEETBRO,2013-08-07 08:56:00,
2013-08-07 05:01:00,77.9,76.7,29.96,NE,53,0.0,0.0,96,0.00,,,0.00,WUHU216PEETBRO,2013-08-07 09:01:00,
2013-08-07 05:06:00,77.9,76.7,29.96,NE,53,0.0,0.0,96,0.00,,,0.00,WUHU216PEETBRO,2013-08-07 09:06:00,
2013-08-07 05:11:00,77.9,76.8,29.96,NE,53,0.0,0.0,97,0.00,,,0.00,WUHU216PEETBRO,2013-08-07 09:11:00,
2013-08-07 05:16:00,78.0,76.9,29.96,NE,53,0.0,0.0,97,0.00,,,0.00,WUHU216PEETBRO,2013-08-07 09:16:00,
2013-08-07 05:21:00,78.0,76.9,29.96,NE,53,0.0,0.0,96,0.00,,,0.00,WUHU216PEETBRO,2013-08-07 09:21:00,
2013-08-07 05:26:00,78.0,76.9,29.96,NE,53,0.0,0.0,97,0.00,,,0.00,WUHU216PEETBRO,2013-08-07 09:26:00,
2013-08-07 05:31:00,78.0,76.9,29.96,NE,53,0.0,0.0,97,0.00,,,0.00,WUHU216PEETBRO,2013-08-07 09:31:00,
2013-08-07 05:36:00,78.0,76.9,29.96,NE,53,0.0,0.0,97,0.00,,,0.00,WUHU216PEETBRO,2013-08-07 09:36:00,
2013-08-07 05:41:00,78.0,76.9,29.96,NE,53,0.0,0.0,97,0.00,,,0.00,WUHU216PEETBRO,2013-08-07 09:41:00,
2013-08-07 05:46:00,77.9,76.8,29.97,NE,53,0.0,0.0,97,0.00,,,0.00,WUHU216PEETBRO,2013-08-07 09:46:00,
2013-08-07 05:51:00,78.0,76.9,29.97,NE,53,0.0,0.0,97,0.00,,,0.00,WUHU216PEETBRO,2013-08-07 09:51:00,
2013-08-07 05:56:00,77.9,76.8,29.97,NE,53,0.0,0.0,97,0.00,,,0.00,WUHU216PEETBRO,2013-08-07 09:56:00,
2013-08-07 06:01:00,77.9,76.8,29.97,NE,53,0.0,0.0,97,0.00,,,0.00,WUHU216PEETBRO,2013-08-07 10:01:00,
2013-08-07 06:06:00,77.9,76.9,29.97,NE,53,0.0,0.0,97,0.00,,,0.00,WUHU216PEETBRO,2013-08-07 10:06:00,
2013-08-07 06:11:00,78.0,77.0,29.97,NE,53,0.0,0.0,97,0.00,,,0.00,WUHU216PEETBRO,2013-08-07 10:11:00,
2013-08-07 06:16:00,78.0,77.0,29.97,NE,53,0.0,0.0,97,0.00,,,0.00,WUHU216PEETBRO,2013-08-07 10:16:00,
2013-08-07 06:21:00,78.2,77.2,29.97,NE,53,0.0,0.0,97,0.00,,,0.00,WUHU216PEETBRO,2013-08-07 10:21:00,
2013-08-07 06:26:00,78.3,77.3,29.97,NE,53,0.0,0.0,97,0.00,,,0.00,WUHU216PEETBRO,2013-08-07 10:26:00,
2013-08-07 06:31:00,78.3,77.3,29.97,NE,53,0.0,0.0,97,0.00,,,0.00,WUHU216PEETBRO,2013-08-07 10:31:00,
2013-08-07 06:36:00,78.2,77.1,29.97,NE,53,0.0,0.0,97,0.00,,,0.00,WUHU216PEETBRO,2013-08-07 10:36:00,
2013-08-07 06:41:00,78.0,76.9,29.97,NE,53,0.0,0.0,97,0.00,,,0.00,WUHU216PEETBRO,2013-08-07 10:41:00,
2013-08-07 06:46:00,77.9,76.9,29.97,NE,53,0.0,0.0,97,0.00,,,0.00,WUHU216PEETBRO,2013-08-07 10:46:00,
2013-08-07 06:51:00,77.8,76.8,29.97,NE,53,0.0,0.0,97,0.00,,,0.00,WUHU216PEETBRO,2013-08-07 10:51:00,
2013-08-07 06:56:00,77.8,76.8,29.97,NE,53,0.0,0.0,97,0.00,,,0.00,WUHU216PEETBRO,2013-08-07 10:56:00,
2013-08-07 07:01:00,77.8,76.8,29.98,NE,53,0.0,0.0,97,0.00,,,0.00,WUHU216PEETBRO,2013-08-07 11:01:00,
2013-08-07 07:06:00,77.9,76.9,29.98,NE,53,0.0,0.0,97,0.00,,,0.00,WUHU216PEETBRO,2013-08-07 11:06:00,
2013-08-07 07:11:00,77.9,76.9,29.98,NE,53,0.0,0.0,97,0.00,,,0.00,WUHU216PEETBRO,2013-08-07 11:11:00,
2013-08-07 07:16:00,77.9,76.9,29.98,NE,53,0.0,0.0,97,0.00,,,0.00,WUHU216PEETBRO,2013-08-07 11:16:00,
2013-08-07 07:21:00,77.9,77.0,29.98,NE,53,0.0,0.0,97,0.00,,,0.00,WUHU216PEETBRO,2013-08-07 11:21:00,
2013-08-07 07:26:00,78.1,77.2,29.98,NE,53,0.0,0.0,97,0.00,,,0.00,WUHU216PEETBRO,2013-08-07 11:26:00,
2013-08-07 07:31:00,78.1,77.2,29.98,NE,53,0.0,0.0,97,0.00,,,0.00,WUHU216PEETBRO,2013-08-07 11:31:00,
2013-08-07 07:36:00,78.1,77.2,29.98,NE,53,0.0,0.0,97,0.00,,,0.00,WUHU216PEETBRO,2013-08-07 11:36:00,
2013-08-07 07:41:00,78.3,77.4,29.98,NE,53,0.0,0.0,97,0.00,,,0.00,WUHU216PEETBRO,2013-08-07 11:41:00,
2013-08-07 07:46:00,78.4,77.5,29.98,NE,53,0.0,0.0,97,0.00,,,0.00,WUHU216PEETBRO,2013-08-07 11:46:00,
2013-08-07 07:51:00,78.7,77.8,29.98,NE,53,0.0,0.0,97,0.00,,,0.00,WUHU216PEETBRO,2013-08-07 11:51:00,
2013-08-07 07:56:00,78.9,78.0,29.99,NE,53,0.0,0.0,97,0.00,,,0.00,WUHU216PEETBRO,2013-08-07 11:56:00,
2013-08-07 08:01:00,79.2,78.3,29.99,NE,53,0.0,0.0,97,0.00,,,0.00,WUHU216PEETBRO,2013-08-07 12:01:00,
2013-08-07 08:06:00,79.4,78.5,29.99,NE,53,0.0,0.0,97,0.00,,,0.00,WUHU216PEETBRO,2013-08-07 12:06:00,
2013-08-07 08:11:00,79.7,78.7,29.99,NNE,18,0.0,4.2,97,0.00,,,0.00,WUHU216PEETBRO,2013-08-07 12:11:00,
2013-08-07 08:16:00,79.9,78.9,29.99,NNE,26,0.0,4.2,97,0.00,,,0.00,WUHU216PEETBRO,2013-08-07 12:16:00,
2013-08-07 08:21:00,80.1,79.1,29.99,NNE,22,0.0,3.5,97,0.00,,,0.00,WUHU216PEETBRO,2013-08-07 12:21:00,
2013-08-07 08:26:00,80.2,79.2,29.99,NNE,33,0.0,5.0,97,0.00,,,0.00,WUHU216PEETBRO,2013-08-07 12:26:00,
2013-08-07 08:31:00,80.4,79.3,30.00,NE,36,3.4,5.2,97,0.00,,,0.00,WUHU216PEETBRO,2013-08-07 12:31:00,
2013-08-07 08:36:00,80.4,79.3,29.99,NNE,23,0.0,5.8,96,0.00,,,0.00,WUHU216PEETBRO,2013-08-07 12:36:00,
2013-08-07 08:41:00,80.5,79.3,29.99,NE,49,5.8,6.4,96,0.00,,,0.00,WUHU216PEETBRO,2013-08-07 12:41:00,
2013-08-07 08:46:00,80.9,79.6,29.99,NE,49,4.3,7.0,96,0.00,,,0.00,WUHU216PEETBRO,2013-08-07 12:46:00,
2013-08-07 08:51:00,81.3,79.9,30.00,NE,39,5.5,7.0,96,0.00,,,0.00,WUHU216PEETBRO,2013-08-07 12:51:00,
2013-08-07 08:56:00,81.5,79.9,30.00,ENE,66,0.0,7.0,95,0.00,,,0.00,WUHU216PEETBRO,2013-08-07 12:56:00,
2013-08-07 09:01:00,81.6,79.8,30.00,NE,50,0.0,6.0,94,0.00,,,0.00,WUHU216PEETBRO,2013-08-07 13:01:00,
2013-08-07 09:06:00,82.0,80.1,30.00,ESE,104,0.0,3.4,94,0.00,,,0.00,WUHU216PEETBRO,2013-08-07 13:06:00,
2013-08-07 09:11:00,82.4,80.3,30.00,East,91,5.2,5.2,93,0.00,,,0.00,WUHU216PEETBRO,2013-08-07 13:11:00,
2013-08-07 09:16:00,82.7,80.1,30.00,East,94,0.0,5.4,92,0.00,,,0.00,WUHU216PEETBRO,2013-08-07 13:16:00,
2013-08-07 09:21:00,83.4,80.7,30.00,ENE,67,2.1,7.5,92,0.00,,,0.00,WUHU216PEETBRO,2013-08-07 13:21:00,
2013-08-07 09:26:00,83.6,79.7,30.00,SE,129,0.0,7.5,88,0.00,,,0.00,WUHU216PEETBRO,2013-08-07 13:26:00,
2013-08-07 09:31:00,83.9,79.5,30.00,ESE,118,2.9,7.8,87,0.00,,,0.00,WUHU216PEETBRO,2013-08-07 13:31:00,
2013-08-07 09:36:00,83.9,78.3,30.00,SE,139,3.2,7.8,83,0.00,,,0.00,WUHU216PEETBRO,2013-08-07 13:36:00,
2013-08-07 09:41:00,83.8,77.9,30.00,ESE,105,3.1,6.2,82,0.00,,,0.00,WUHU216PEETBRO,2013-08-07 13:41:00,
2013-08-07 09:46:00,84.1,78.3,30.00,ENE,70,5.0,6.2,83,0.00,,,0.00,WUHU216PEETBRO,2013-08-07 13:46:00,
2013-08-07 09:51:00,84.5,77.9,30.00,SSE,149,3.0,6.8,80,0.00,,,0.00,WUHU216PEETBRO,2013-08-07 13:51:00,
2013-08-07 09:57:00,84.9,78.0,30.00,NE,49,3.3,6.8,80,0.00,,,0.00,WUHU216PEETBRO,2013-08-07 13:57:00,
2013-08-07 10:02:00,85.5,77.5,30.00,SE,134,6.2,6.9,77,0.00,,,0.00,WUHU216PEETBRO,2013-08-07 14:02:00,
2013-08-07 10:07:00,85.7,76.9,30.01,SSE,153,3.3,6.9,75,0.00,,,0.00,WUHU216PEETBRO,2013-08-07 14:07:00,
2013-08-07 10:12:00,85.3,76.7,30.00,SE,139,0.0,6.2,75,0.00,,,0.00,WUHU216PEETBRO,2013-08-07 14:12:00,
2013-08-07 10:17:00,84.9,76.6,30.00,ENE,59,1.6,7.9,76,0.00,,,0.00,WUHU216PEETBRO,2013-08-07 14:17:00,
2013-08-07 10:22:00,84.8,75.6,30.00,SSE,153,0.0,7.9,74,0.00,,,0.00,WUHU216PEETBRO,2013-08-07 14:22:00,
2013-08-07 10:27:00,85.2,76.2,30.00,ESE,111,0.0,6.1,74,0.00,,,0.00,WUHU216PEETBRO,2013-08-07 14:27:00,
2013-08-07 10:32:00,85.3,76.0,30.00,SSE,152,3.5,6.9,73,0.00,,,0.00,WUHU216PEETBRO,2013-08-07 14:32:00,
2013-08-07 10:37:00,85.5,76.5,30.00,SE,132,0.0,6.9,74,0.00,,,0.00,WUHU216PEETBRO,2013-08-07 14:37:00,
2013-08-07 10:42:00,86.2,77.3,30.00,SSW,213,6.1,7.2,75,0.00,,,0.00,WUHU216PEETBRO,2013-08-07 14:42:00,
2013-08-07 10:47:00,86.9,75.8,30.01,SSE,152,4.7,7.3,69,0.00,,,0.00,WUHU216PEETBRO,2013-08-07 14:47:00,
2013-08-07 10:52:00,87.1,75.5,30.01,ESE,117,0.0,7.5,68,0.00,,,0.00,WUHU216PEETBRO,2013-08-07 14:52:00,
2013-08-07 10:57:00,87.2,76.0,30.01,ENE,64,0.0,10.4,69,0.00,,,0.00,WUHU216PEETBRO,2013-08-07 14:57:00,
2013-08-07 11:02:00,87.4,74.2,30.01,SSE,155,5.9,10.4,65,0.00,,,0.00,WUHU216PEETBRO,2013-08-07 15:02:00,
2013-08-07 11:07:00,87.6,74.8,30.01,NE,55,3.0,8.5,65,0.00,,,0.00,WUHU216PEETBRO,2013-08-07 15:07:00,
2013-08-07 11:12:00,87.7,76.0,30.01,SSE,156,3.4,8.5,68,0.00,,,0.00,WUHU216PEETBRO,2013-08-07 15:12:00,
2013-08-07 11:17:00,87.7,75.2,30.01,East,90,5.5,9.4,66,0.00,,,0.00,WUHU216PEETBRO,2013-08-07 15:17:00,
2013-08-07 11:22:00,88.0,75.1,30.00,NNE,15,0.0,10.3,65,0.00,,,0.00,WUHU216PEETBRO,2013-08-07 15:22:00,
2013-08-07 11:27:00,87.7,75.1,30.00,ENE,74,5.2,6.3,66,0.00,,,0.00,WUHU216PEETBRO,2013-08-07 15:27:00,
2013-08-07 11:32:00,88.1,75.1,30.00,ESE,121,0.0,7.1,65,0.00,,,0.00,WUHU216PEETBRO,2013-08-07 15:32:00,
2013-08-07 11:37:00,88.7,75.1,30.00,SSE,159,0.0,7.1,64,0.00,,,0.00,WUHU216PEETBRO,2013-08-07 15:37:00,
2013-08-07 11:42:00,89.3,75.6,30.00,NE,46,6.4,9.4,64,0.00,,,0.00,WUHU216PEETBRO,2013-08-07 15:42:00,
2013-08-07 11:47:00,90.4,74.5,30.00,NE,50,3.4,9.4,59,0.00,,,0.00,WUHU216PEETBRO,2013-08-07 15:47:00,
2013-08-07 11:52:00,91.7,73.9,30.00,NE,35,6.5,8.6,56,0.00,,,0.00,WUHU216PEETBRO,2013-08-07 15:52:00,
2013-08-07 11:57:00,92.0,74.4,30.00,NE,46,0.0,7.9,56,0.00,,,0.00,WUHU216PEETBRO,2013-08-07 15:57:00,
2013-08-07 12:02:00,92.2,74.1,30.00,NE,36,0.0,7.9,55,0.00,,,0.00,WUHU216PEETBRO,2013-08-07 16:02:00,
2013-08-07 12:07:00,91.3,73.6,30.00,ENE,60,3.2,9.8,56,0.00,,,0.00,WUHU216PEETBRO,2013-08-07 16:07:00,
2013-08-07 12:12:00,90.7,73.9,30.00,NE,43,3.4,9.8,58,0.00,,,0.00,WUHU216PEETBRO,2013-08-07 16:12:00,
2013-08-07 12:17:00,89.9,74.1,30.00,ENE,70,5.9,8.1,59,0.00,,,0.00,WUHU216PEETBRO,2013-08-07 16:17:00,
2013-08-07 12:22:00,89.7,74.3,30.00,East,100,5.7,8.6,60,0.00,,,0.00,WUHU216PEETBRO,2013-08-07 16:22:00,
2013-08-07 12:27:00,89.8,73.5,29.99,NE,46,5.3,8.6,58,0.00,,,0.00,WUHU216PEETBRO,2013-08-07 16:27:00,
2013-08-07 12:32:00,90.9,73.6,29.99,NNE,33,0.0,7.4,57,0.00,,,0.00,WUHU216PEETBRO,2013-08-07 16:32:00,
2013-08-07 12:37:00,91.7,73.3,29.99,East,83,7.3,11.0,55,0.00,,,0.00,WUHU216PEETBRO,2013-08-07 16:37:00,
2013-08-07 12:42:00,92.8,73.4,29.99,NE,50,6.3,11.4,53,0.00,,,0.00,WUHU216PEETBRO,2013-08-07 16:42:00,
2013-08-07 12:47:00,93.3,72.6,29.99,ESE,118,0.0,11.4,51,0.00,,,0.00,WUHU216PEETBRO,2013-08-07 16:47:00,
2013-08-07 12:52:00,93.0,73.0,29.99,East,84,3.4,7.8,52,0.00,,,0.00,WUHU216PEETBRO,2013-08-07 16:52:00,
2013-08-07 12:57:00,92.9,73.5,29.99,ENE,67,5.2,7.4,53,0.00,,,0.00,WUHU216PEETBRO,2013-08-07 16:57:00,
2013-08-07 13:02:00,92.9,73.7,29.99,ENE,69,5.0,7.2,53,0.00,,,0.00,WUHU216PEETBRO,2013-08-07 17:02:00,
2013-08-07 13:07:00,92.2,73.7,29.99,NNE,33,10.6,12.6,55,0.00,,,0.00,WUHU216PEETBRO,2013-08-07 17:07:00,
2013-08-07 13:12:00,93.1,74.2,29.98,ESE,105,6.2,12.6,54,0.00,,,0.00,WUHU216PEETBRO,2013-08-07 17:12:00,
2013-08-07 13:17:00,92.8,74.2,29.98,ENE,59,9.4,10.3,54,0.00,,,0.00,WUHU216PEETBRO,2013-08-07 17:17:00,
2013-08-07 13:22:00,92.8,73.6,29.98,ENE,67,5.5,12.7,53,0.00,,,0.00,WUHU216PEETBRO,2013-08-07 17:22:00,
2013-08-07 13:27:00,93.8,74.0,29.98,NE,35,12.4,12.7,52,0.00,,,0.00,WUHU216PEETBRO,2013-08-07 17:27:00,
2013-08-07 13:32:00,94.7,73.3,29.98,ENE,62,5.8,12.8,50,0.00,,,0.00,WUHU216PEETBRO,2013-08-07 17:32:00,
2013-08-07 13:37:00,94.5,73.3,29.97,SSW,193,2.4,12.8,50,0.00,,,0.00,WUHU216PEETBRO,2013-08-07 17:37:00,
2013-08-07 13:42:00,92.8,73.6,29.98,SE,129,2.2,8.9,53,0.00,,,0.00,WUHU216PEETBRO,2013-08-07 17:42:00,
2013-08-07 13:47:00,91.9,73.6,29.98,East,90,6.0,8.9,55,0.00,,,0.00,WUHU216PEETBRO,2013-08-07 17:47:00,
2013-08-07 13:52:00,90.7,74.3,29.98,SE,124,0.0,9.6,58,0.00,,,0.00,WUHU216PEETBRO,2013-08-07 17:52:00,
2013-08-07 13:57:00,90.5,73.9,29.98,NE,52,10.6,10.8,58,0.00,,,0.00,WUHU216PEETBRO,2013-08-07 17:57:00,
2013-08-07 14:02:00,91.3,74.1,29.98,ENE,62,7.6,12.0,57,0.00,,,0.00,WUHU216PEETBRO,2013-08-07 18:02:00,
2013-08-07 14:07:00,91.8,72.7,29.98,ENE,64,5.1,13.7,53,0.00,,,0.00,WUHU216PEETBRO,2013-08-07 18:07:00,
2013-08-07 14:12:00,92.0,73.4,29.98,ENE,62,3.4,13.7,54,0.00,,,0.00,WUHU216PEETBRO,2013-08-07 18:12:00,
2013-08-07 14:17:00,92.0,73.5,29.98,ESE,115,8.3,11.7,55,0.00,,,0.00,WUHU216PEETBRO,2013-08-07 18:17:00,
2013-08-07 14:22:00,92.7,73.5,29.98,ESE,112,7.8,11.7,53,0.00,,,0.00,WUHU216PEETBRO,2013-08-07 18:22:00,
2013-08-07 14:27:00,92.7,72.3,29.98,NNE,25,7.7,15.0,51,0.00,,,0.00,WUHU216PEETBRO,2013-08-07 18:27:00,
2013-08-07 14:32:00,92.0,73.0,29.98,East,90,5.7,15.0,54,0.00,,,0.00,WUHU216PEETBRO,2013-08-07 18:32:00,
2013-08-07 14:37:00,90.9,72.9,29.98,East,94,0.0,11.7,55,0.00,,,0.00,WUHU216PEETBRO,2013-08-07 18:37:00,
2013-08-07 14:42:00,90.1,73.7,29.98,SE,139,5.0,9.6,58,0.00,,,0.00,WUHU216PEETBRO,2013-08-07 18:42:00,
2013-08-07 14:47:00,90.2,74.3,29.98,NE,50,5.3,9.3,59,0.00,,,0.00,WUHU216PEETBRO,2013-08-07 18:47:00,
2013-08-07 14:52:00,90.7,73.5,29.97,NNE,14,10.4,13.5,57,0.00,,,0.00,WUHU216PEETBRO,2013-08-07 18:52:00,
2013-08-07 14:57:00,91.0,72.9,29.97,NE,39,6.4,14.8,55,0.00,,,0.00,WUHU216PEETBRO,2013-08-07 18:57:00,
2013-08-07 15:02:00,90.8,73.4,29.97,NE,49,0.0,14.8,56,0.00,,,0.00,WUHU216PEETBRO,2013-08-07 19:02:00,
2013-08-07 15:07:00,90.3,74.0,29.97,ENE,63,8.0,9.4,58,0.00,,,0.00,WUHU216PEETBRO,2013-08-07 19:07:00,
2013-08-07 15:12:00,90.2,74.6,29.97,NNE,21,5.3,12.1,60,0.00,,,0.00,WUHU216PEETBRO,2013-08-07 19:12:00,
2013-08-07 15:17:00,90.6,74.7,29.97,East,88,8.0,12.1,59,0.00,,,0.00,WUHU216PEETBRO,2013-08-07 19:17:00,
2013-08-07 15:22:00,90.7,73.8,29.97,East,84,6.0,11.3,57,0.00,,,0.00,WUHU216PEETBRO,2013-08-07 19:22:00,
2013-08-07 15:27:00,91.3,73.8,29.97,SE,131,4.7,14.2,56,0.00,,,0.00,WUHU216PEETBRO,2013-08-07 19:27:00,
2013-08-07 15:32:00,91.1,73.0,29.96,East,83,7.3,14.2,55,0.00,,,0.00,WUHU216PEETBRO,2013-08-07 19:32:00,
2013-08-07 15:37:00,90.8,73.4,29.96,SE,134,3.4,9.4,56,0.00,,,0.00,WUHU216PEETBRO,2013-08-07 19:37:00,
2013-08-07 15:42:00,91.1,73.2,29.96,ESE,108,8.5,9.8,56,0.00,,,0.00,WUHU216PEETBRO,2013-08-07 19:42:00,
2013-08-07 15:47:00,91.4,71.6,29.96,ENE,59,6.0,9.8,52,0.00,,,0.00,WUHU216PEETBRO,2013-08-07 19:47:00,
2013-08-07 15:52:00,92.3,73.1,29.96,ENE,66,9.1,12.3,53,0.00,,,0.00,WUHU216PEETBRO,2013-08-07 19:52:00,
2013-08-07 15:57:00,93.3,73.8,29.96,ENE,57,7.9,16.0,53,0.00,,,0.00,WUHU216PEETBRO,2013-08-07 19:57:00,
2013-08-07 16:02:00,92.6,74.4,29.96,ENE,69,9.3,16.0,55,0.00,,,0.00,WUHU216PEETBRO,2013-08-07 20:02:00,
2013-08-07 16:07:00,92.3,74.3,29.96,NE,49,6.8,12.5,55,0.00,,,0.00,WUHU216PEETBRO,2013-08-07 20:07:00,
2013-08-07 16:12:00,92.1,73.4,29.96,East,81,8.3,12.5,54,0.00,,,0.00,WUHU216PEETBRO,2013-08-07 20:12:00,
2013-08-07 16:17:00,91.8,74.4,29.96,ENE,62,4.5,11.7,56,0.00,,,0.00,WUHU216PEETBRO,2013-08-07 20:17:00,
2013-08-07 16:22:00,91.4,74.3,29.96,NE,42,7.1,14.5,57,0.00,,,0.00,WUHU216PEETBRO,2013-08-07 20:22:00,
2013-08-07 16:27:00,91.3,74.5,29.96,NE,53,8.0,15.6,58,0.00,,,0.00,WUHU216PEETBRO,2013-08-07 20:27:00,
2013-08-07 16:32:00,91.7,73.4,29.96,SSE,162,8.3,15.6,55,0.00,,,0.00,WUHU216PEETBRO,2013-08-07 20:32:00,
2013-08-07 16:37:00,91.3,74.3,29.96,ENE,69,8.9,13.7,57,0.00,,,0.00,WUHU216PEETBRO,2013-08-07 20:37:00,
2013-08-07 16:42:00,91.8,73.7,29.96,ENE,71,9.9,15.2,55,0.00,,,0.00,WUHU216PEETBRO,2013-08-07 20:42:00,
2013-08-07 16:47:00,92.1,74.5,29.96,East,79,6.8,15.2,56,0.00,,,0.00,WUHU216PEETBRO,2013-08-07 20:47:00,
2013-08-07 16:52:00,91.2,74.0,29.96,North,359,6.6,12.4,57,0.00,,,0.00,WUHU216PEETBRO,2013-08-07 20:52:00,
2013-08-07 16:57:00,90.0,75.2,29.96,East,83,7.3,12.7,61,0.00,,,0.00,WUHU216PEETBRO,2013-08-07 20:57:00,
2013-08-07 17:02:00,89.4,74.9,29.96,ENE,74,11.2,12.7,62,0.00,,,0.00,WUHU216PEETBRO,2013-08-07 21:02:00,
2013-08-07 17:07:00,89.6,74.6,29.96,SSE,153,5.7,12.3,61,0.00,,,0.00,WUHU216PEETBRO,2013-08-07 21:07:00,
2013-08-07 17:12:00,90.1,74.2,29.96,ESE,119,2.6,12.3,59,0.00,,,0.00,WUHU216PEETBRO,2013-08-07 21:12:00,
2013-08-07 17:17:00,89.9,73.2,29.96,SE,139,6.2,11.4,58,0.00,,,0.00,WUHU216PEETBRO,2013-08-07 21:17:00,
2013-08-07 17:22:00,90.0,74.3,29.96,ESE,107,2.9,15.5,60,0.00,,,0.00,WUHU216PEETBRO,2013-08-07 21:22:00,
2013-08-07 17:27:00,89.4,73.8,29.96,East,101,0.0,15.5,60,0.00,,,0.00,WUHU216PEETBRO,2013-08-07 21:27:00,
2013-08-07 17:32:00,89.0,72.7,29.96,North,359,8.1,12.7,58,0.00,,,0.00,WUHU216PEETBRO,2013-08-07 21:32:00,
2013-08-07 17:37:00,88.3,73.4,29.96,ENE,63,3.4,17.3,61,0.00,,,0.00,WUHU216PEETBRO,2013-08-07 21:37:00,
2013-08-07 17:42:00,87.8,73.8,29.96,ENE,62,7.2,17.3,63,0.00,,,0.00,WUHU216PEETBRO,2013-08-07 21:42:00,
2013-08-07 17:47:00,88.0,73.4,29.95,East,86,6.6,12.6,62,0.00,,,0.00,WUHU216PEETBRO,2013-08-07 21:47:00,
2013-08-07 17:52:00,88.2,73.4,29.95,ENE,71,6.3,11.9,61,0.00,,,0.00,WUHU216PEETBRO,2013-08-07 21:52:00,
2013-08-07 17:57:00,88.3,73.1,29.95,ENE,57,6.7,12.4,60,0.00,,,0.00,WUHU216PEETBRO,2013-08-07 21:57:00,
2013-08-07 18:02:00,88.3,73.0,29.95,SSE,163,4.7,12.4,60,0.00,,,0.00,WUHU216PEETBRO,2013-08-07 22:02:00,
2013-08-07 18:07:00,88.3,72.8,29.95,SE,142,5.4,13.5,60,0.00,,,0.00,WUHU216PEETBRO,2013-08-07 22:07:00,
2013-08-07 18:12:00,88.4,72.9,29.95,ESE,103,6.6,13.5,60,0.00,,,0.00,WUHU216PEETBRO,2013-08-07 22:12:00,
2013-08-07 18:17:00,87.9,72.9,29.95,ESE,104,7.4,11.7,61,0.00,,,0.00,WUHU216PEETBRO,2013-08-07 22:17:00,
2013-08-07 18:22:00,87.3,72.8,29.95,ESE,117,4.8,11.4,62,0.00,,,0.00,WUHU216PEETBRO,2013-08-07 22:22:00,
2013-08-07 18:27:00,86.9,72.6,29.95,East,90,5.5,9.5,62,0.00,,,0.00,WUHU216PEETBRO,2013-08-07 22:27:00,
2013-08-07 18:32:00,87.0,73.0,29.95,NE,56,5.8,9.5,63,0.00,,,0.00,WUHU216PEETBRO,2013-08-07 22:32:00,
2013-08-07 18:37:00,87.2,73.3,29.95,ESE,111,4.2,26.2,63,0.00,,,0.00,WUHU216PEETBRO,2013-08-07 22:37:00,
2013-08-07 18:42:00,87.3,73.7,29.95,ENE,60,4.3,26.2,64,0.00,,,0.00,WUHU216PEETBRO,2013-08-07 22:42:00,
2013-08-07 18:47:00,87.1,73.7,29.95,NNE,26,1.2,8.4,64,0.00,,,0.00,WUHU216PEETBRO,2013-08-07 22:47:00,
2013-08-07 18:52:00,86.9,74.0,29.95,SSE,158,5.1,9.3,65,0.00,,,0.00,WUHU216PEETBRO,2013-08-07 22:52:00,
2013-08-07 18:57:00,86.6,74.2,29.95,NE,36,0.0,9.3,66,0.00,,,0.00,WUHU216PEETBRO,2013-08-07 22:57:00,
2013-08-07 19:02:00,86.5,74.0,29.95,NE,45,4.7,7.8,66,0.00,,,0.00,WUHU216PEETBRO,2013-08-07 23:02:00,
2013-08-07 19:07:00,86.4,73.9,29.96,South,187,0.0,7.8,66,0.00,,,0.00,WUHU216PEETBRO,2013-08-07 23:07:00,
2013-08-07 19:12:00,86.4,74.1,29.96,ESE,110,0.0,8.5,66,0.00,,,0.00,WUHU216PEETBRO,2013-08-07 23:12:00,
2013-08-07 19:17:00,86.3,74.3,29.96,ENE,73,8.7,8.7,67,0.00,,,0.00,WUHU216PEETBRO,2013-08-07 23:17:00,
2013-08-07 19:22:00,86.4,74.0,29.96,East,100,0.0,8.7,66,0.00,,,0.00,WUHU216PEETBRO,2013-08-07 23:22:00,
2013-08-07 19:27:00,86.2,73.9,29.97,East,80,0.0,7.6,66,0.00,,,0.00,WUHU216PEETBRO,2013-08-07 23:27:00,
2013-08-07 19:32:00,86.2,74.1,29.97,NE,36,0.0,7.4,67,0.00,,,0.00,WUHU216PEETBRO,2013-08-07 23:32:00,
2013-08-07 19:37:00,86.0,73.9,29.97,NE,56,4.8,6.9,67,0.00,,,0.00,WUHU216PEETBRO,2013-08-07 23:37:00,
2013-08-07 19:42:00,85.9,74.0,29.97,ESE,103,4.2,8.0,67,0.00,,,0.00,WUHU216PEETBRO,2013-08-07 23:42:00,
2013-08-07 19:47:00,85.7,74.1,29.97,SE,139,4.3,8.0,68,0.00,,,0.00,WUHU216PEETBRO,2013-08-07 23:47:00,
2013-08-07 19:52:00,85.5,74.3,29.96,NNE,25,0.0,7.8,69,0.00,,,0.00,WUHU216PEETBRO,2013-08-07 23:52:00,
2013-08-07 19:57:00,85.4,74.5,29.97,SE,136,3.1,7.8,69,0.00,,,0.00,WUHU216PEETBRO,2013-08-07 23:57:00,
2013-08-07 20:02:00,85.1,74.6,29.97,ENE,63,3.0,8.0,70,0.00,,,0.00,WUHU216PEETBRO,2013-08-08 00:02:00,
2013-08-07 20:07:00,85.0,74.9,29.98,East,86,5.5,8.0,71,0.00,,,0.00,WUHU216PEETBRO,2013-08-08 00:07:00,
2013-08-07 20:12:00,84.8,75.0,29.98,SE,124,0.0,7.8,72,0.00,,,0.00,WUHU216PEETBRO,2013-08-08 00:12:00,
2013-08-07 20:17:00,84.6,75.2,29.98,ENE,64,4.9,6.7,73,0.00,,,0.00,WUHU216PEETBRO,2013-08-08 00:17:00,
2013-08-07 20:22:00,84.5,75.5,29.98,East,79,0.0,6.7,74,0.00,,,0.00,WUHU216PEETBRO,2013-08-08 00:22:00,
2013-08-07 20:27:00,84.3,75.7,29.99,East,101,0.0,8.6,75,0.00,,,0.00,WUHU216PEETBRO,2013-08-08 00:27:00,
2013-08-07 20:32:00,84.0,75.6,29.99,ESE,118,2.4,9.3,76,0.00,,,0.00,WUHU216PEETBRO,2013-08-08 00:32:00,
2013-08-07 20:37:00,83.8,75.6,30.00,ESE,115,0.0,9.3,76,0.00,,,0.00,WUHU216PEETBRO,2013-08-08 00:37:00,
2013-08-07 20:42:00,83.6,75.5,30.00,East,97,0.0,5.5,76,0.00,,,0.00,WUHU216PEETBRO,2013-08-08 00:42:00,
2013-08-07 20:47:00,83.5,75.6,30.00,SE,124,0.0,5.5,77,0.00,,,0.00,WUHU216PEETBRO,2013-08-08 00:47:00,
2013-08-07 20:52:00,83.4,75.6,30.00,East,84,0.0,5.2,77,0.00,,,0.00,WUHU216PEETBRO,2013-08-08 00:52:00,
2013-08-07 20:57:00,83.2,75.5,30.01,SE,138,4.3,7.5,77,0.00,,,0.00,WUHU216PEETBRO,2013-08-08 00:57:00,
2013-08-07 21:02:00,83.1,75.5,30.01,ENE,59,3.2,7.5,78,0.00,,,0.00,WUHU216PEETBRO,2013-08-08 01:02:00,
2013-08-07 21:07:00,83.0,75.6,30.00,SSE,149,0.0,4.8,78,0.00,,,0.00,WUHU216PEETBRO,2013-08-08 01:07:00,
2013-08-07 21:12:00,82.8,75.6,30.00,SSE,149,0.0,0.0,79,0.00,,,0.00,WUHU216PEETBRO,2013-08-08 01:12:00,
2013-08-07 21:17:00,82.7,75.6,30.00,NE,42,4.3,4.8,79,0.00,,,0.00,WUHU216PEETBRO,2013-08-08 01:17:00,
2013-08-07 21:22:00,82.6,75.7,30.01,ENE,70,2.7,6.5,79,0.00,,,0.00,WUHU216PEETBRO,2013-08-08 01:22:00,
2013-08-07 21:27:00,82.5,75.8,30.01,ENE,60,1.7,6.5,80,0.00,,,0.00,WUHU216PEETBRO,2013-08-08 01:27:00,
2013-08-07 21:32:00,82.5,75.9,30.01,NE,55,0.0,7.0,80,0.00,,,0.00,WUHU216PEETBRO,2013-08-08 01:32:00,
2013-08-07 21:37:00,82.5,76.1,30.01,NE,50,0.0,7.0,81,0.00,,,0.00,WUHU216PEETBRO,2013-08-08 01:37:00,
2013-08-07 21:42:00,82.4,76.1,30.00,NNE,32,0.0,5.5,81,0.00,,,0.00,WUHU216PEETBRO,2013-08-08 01:42:00,
2013-08-07 21:47:00,82.2,76.1,30.00,SSW,196,0.0,7.1,82,0.00,,,0.00,WUHU216PEETBRO,2013-08-08 01:47:00,
2013-08-07 21:52:00,82.1,76.3,30.01,ENE,66,2.7,7.1,82,0.00,,,0.00,WUHU216PEETBRO,2013-08-08 01:52:00,
2013-08-07 21:57:00,82.0,76.2,30.01,ENE,77,0.0,7.2,83,0.00,,,0.00,WUHU216PEETBRO,2013-08-08 01:57:00,
2013-08-07 22:02:00,81.9,76.1,30.01,ENE,62,0.0,7.2,82,0.00,,,0.00,WUHU216PEETBRO,2013-08-08 02:02:00,
2013-08-07 22:07:00,81.7,76.0,30.01,East,95,0.0,5.8,83,0.00,,,0.00,WUHU216PEETBRO,2013-08-08 02:07:00,
2013-08-07 22:12:00,81.6,76.1,30.01,NE,39,0.0,5.1,83,0.00,,,0.00,WUHU216PEETBRO,2013-08-08 02:12:00,
2013-08-07 22:17:00,81.5,76.2,30.01,ENE,69,0.0,6.1,84,0.00,,,0.00,WUHU216PEETBRO,2013-08-08 02:17:00,
2013-08-07 22:22:00,81.5,76.3,30.01,NE,42,5.7,7.1,84,0.00,,,0.00,WUHU216PEETBRO,2013-08-08 02:22:00,
2013-08-07 22:27:00,81.6,76.5,30.01,ESE,108,4.8,8.0,85,0.00,,,0.00,WUHU216PEETBRO,2013-08-08 02:27:00,
2013-08-07 22:32:00,81.6,76.7,30.01,NE,46,5.0,8.0,85,0.00,,,0.00,WUHU216PEETBRO,2013-08-08 02:32:00,
2013-08-07 22:37:00,81.4,76.8,30.01,ENE,64,0.0,7.1,86,0.00,,,0.00,WUHU216PEETBRO,2013-08-08 02:37:00,
2013-08-07 22:42:00,81.4,77.0,30.01,NE,49,3.2,7.1,86,0.00,,,0.00,WUHU216PEETBRO,2013-08-08 02:42:00,
2013-08-07 22:47:00,81.3,77.0,30.01,ENE,77,0.0,6.9,87,0.00,,,0.00,WUHU216PEETBRO,2013-08-08 02:47:00,
2013-08-07 22:52:00,81.1,76.9,30.01,East,80,0.0,6.9,87,0.00,,,0.00,WUHU216PEETBRO,2013-08-08 02:52:00,
2013-08-07 22:57:00,81.0,76.9,30.01,ESE,104,3.2,5.2,87,0.00,,,0.00,WUHU216PEETBRO,2013-08-08 02:57:00,
2013-08-07 23:02:00,80.8,76.8,30.01,NE,52,0.0,5.2,88,0.00,,,0.00,WUHU216PEETBRO,2013-08-08 03:02:00,
2013-08-07 23:07:00,80.8,77.1,30.01,NE,42,2.1,4.5,89,0.00,,,0.00,WUHU216PEETBRO,2013-08-08 03:07:00,
2013-08-07 23:12:00,80.8,77.2,30.01,NE,55,0.0,7.3,89,0.00,,,0.00,WUHU216PEETBRO,2013-08-08 03:12:00,
2013-08-07 23:17:00,80.7,77.2,30.01,NE,35,0.0,7.3,89,0.00,,,0.00,WUHU216PEETBRO,2013-08-08 03:17:00,
2013-08-07 23:22:00,80.7,77.2,30.01,ENE,71,0.0,5.7,89,0.00,,,0.00,WUHU216PEETBRO,2013-08-08 03:22:00,
2013-08-07 23:27:00,80.5,77.2,30.01,North,4,0.0,7.5,90,0.00,,,0.00,WUHU216PEETBRO,2013-08-08 03:27:00,
2013-08-07 23:32:00,80.5,77.3,30.01,ENE,60,5.4,7.5,90,0.00,,,0.00,WUHU216PEETBRO,2013-08-08 03:32:00,
2013-08-07 23:37:00,80.4,77.2,30.01,SE,143,7.3,7.3,90,0.00,,,0.00,WUHU216PEETBRO,2013-08-08 03:37:00,
2013-08-07 23:42:00,80.5,77.4,30.01,NE,39,4.5,7.3,90,0.00,,,0.00,WUHU216PEETBRO,2013-08-08 03:42:00,
2013-08-07 23:47:00,80.4,77.4,30.01,ENE,63,0.0,6.1,91,0.00,,,0.00,WUHU216PEETBRO,2013-08-08 03:47:00,
2013-08-07 23:52:00,80.3,77.2,30.01,ESE,111,0.0,4.5,90,0.00,,,0.00,WUHU216PEETBRO,2013-08-08 03:52:00,
2013-08-07 23:57:00,80.3,77.3,30.01,ESE,111,3.4,6.2,91,0.00,,,0.00,WUHU216PEETBRO,2013-08-08 03:57:00,